sensor_id;sensor_type;location;lat;lon;timestamp;P1;durP1;ratioP1;P2;durP2;ratioP2
5135;SDS011;2586;48.710;9.202;2023-05-14T00:01:05;5.27;;;4.87;;
5135;SDS011;2586;48.710;9.202;2023-05-14T00:03:32;5.33;;;4.80;;
5135;SDS011;2586;48.710;9.202;2023-05-14T00:05:58;4.50;;;4.17;;
5135;SDS011;2586;48.710;9.202;2023-05-14T00:08:23;5.73;;;5.23;;
5135;SDS011;2586;48.710;9.202;2023-05-14T00:10:49;5.07;;;4.57;;
5135;SDS011;2586;48.710;9.202;2023-05-14T00:13:14;9.43;;;5.03;;
5135;SDS011;2586;48.710;9.202;2023-05-14T00:15:40;5.90;;;5.03;;
5135;SDS011;2586;48.710;9.202;2023-05-14T00:18:06;5.03;;;4.60;;
5135;SDS011;2586;48.710;9.202;2023-05-14T00:20:31;6.53;;;5.43;;
5135;SDS011;2586;48.710;9.202;2023-05-14T00:22:57;6.17;;;4.63;;
5135;SDS011;2586;48.710;9.202;2023-05-14T00:25:22;9.80;;;6.73;;
5135;SDS011;2586;48.710;9.202;2023-05-14T00:27:48;5.67;;;5.10;;
5135;SDS011;2586;48.710;9.202;2023-05-14T00:30:13;5.80;;;5.27;;
5135;SDS011;2586;48.710;9.202;2023-05-14T00:32:39;5.43;;;4.93;;
5135;SDS011;2586;48.710;9.202;2023-05-14T00:35:05;9.30;;;4.87;;
5135;SDS011;2586;48.710;9.202;2023-05-14T00:37:30;6.00;;;4.70;;
5135;SDS011;2586;48.710;9.202;2023-05-14T00:39:56;6.47;;;5.07;;
5135;SDS011;2586;48.710;9.202;2023-05-14T00:42:22;9.03;;;4.40;;
5135;SDS011;2586;48.710;9.202;2023-05-14T00:44:48;6.27;;;5.63;;
5135;SDS011;2586;48.710;9.202;2023-05-14T00:47:13;5.23;;;4.53;;
5135;SDS011;2586;48.710;9.202;2023-05-14T00:49:39;5.07;;;4.67;;
5135;SDS011;2586;48.710;9.202;2023-05-14T00:52:06;5.37;;;4.40;;
5135;SDS011;2586;48.710;9.202;2023-05-14T00:54:31;5.77;;;4.93;;
5135;SDS011;2586;48.710;9.202;2023-05-14T00:56:57;4.70;;;4.23;;
5135;SDS011;2586;48.710;9.202;2023-05-14T00:59:24;5.67;;;4.33;;
5135;SDS011;2586;48.710;9.202;2023-05-14T01:01:50;6.63;;;4.57;;
5135;SDS011;2586;48.710;9.202;2023-05-14T01:04:15;9.40;;;4.90;;
5135;SDS011;2586;48.710;9.202;2023-05-14T01:12:10;5.90;;;5.10;;
5135;SDS011;2586;48.710;9.202;2023-05-14T01:14:44;6.83;;;6.13;;
5135;SDS011;2586;48.710;9.202;2023-05-14T01:17:28;7.77;;;7.10;;
5135;SDS011;2586;48.710;9.202;2023-05-14T01:19:57;10.37;;;7.57;;
5135;SDS011;2586;48.710;9.202;2023-05-14T01:22:24;7.97;;;7.27;;
5135;SDS011;2586;48.710;9.202;2023-05-14T01:24:49;11.60;;;7.73;;
5135;SDS011;2586;48.710;9.202;2023-05-14T01:27:30;8.33;;;7.50;;
5135;SDS011;2586;48.710;9.202;2023-05-14T01:30:06;8.50;;;7.63;;
5135;SDS011;2586;48.710;9.202;2023-05-14T01:32:47;8.67;;;7.23;;
5135;SDS011;2586;48.710;9.202;2023-05-14T01:35:16;7.40;;;6.70;;
5135;SDS011;2586;48.710;9.202;2023-05-14T01:37:42;8.90;;;7.97;;
5135;SDS011;2586;48.710;9.202;2023-05-14T01:40:09;8.57;;;7.77;;
5135;SDS011;2586;48.710;9.202;2023-05-14T01:42:36;11.60;;;8.40;;
5135;SDS011;2586;48.710;9.202;2023-05-14T01:45:02;10.80;;;8.90;;
5135;SDS011;2586;48.710;9.202;2023-05-14T01:47:28;9.90;;;8.90;;
5135;SDS011;2586;48.710;9.202;2023-05-14T01:49:54;9.63;;;8.00;;
5135;SDS011;2586;48.710;9.202;2023-05-14T01:52:19;10.63;;;9.37;;
5135;SDS011;2586;48.710;9.202;2023-05-14T01:54:45;9.93;;;8.93;;
5135;SDS011;2586;48.710;9.202;2023-05-14T01:57:12;10.37;;;8.20;;
5135;SDS011;2586;48.710;9.202;2023-05-14T01:59:37;11.97;;;9.10;;
5135;SDS011;2586;48.710;9.202;2023-05-14T02:02:03;9.43;;;8.53;;
5135;SDS011;2586;48.710;9.202;2023-05-14T02:04:28;10.33;;;9.20;;
5135;SDS011;2586;48.710;9.202;2023-05-14T02:06:54;10.03;;;8.10;;
5135;SDS011;2586;48.710;9.202;2023-05-14T02:09:20;13.60;;;9.03;;
5135;SDS011;2586;48.710;9.202;2023-05-14T02:11:46;10.20;;;9.20;;
5135;SDS011;2586;48.710;9.202;2023-05-14T02:14:11;15.80;;;10.90;;
5135;SDS011;2586;48.710;9.202;2023-05-14T02:16:39;11.57;;;9.53;;
5135;SDS011;2586;48.710;9.202;2023-05-14T02:19:04;17.93;;;10.47;;
5135;SDS011;2586;48.710;9.202;2023-05-14T02:21:30;13.17;;;10.97;;
5135;SDS011;2586;48.710;9.202;2023-05-14T02:23:56;13.10;;;10.80;;
5135;SDS011;2586;48.710;9.202;2023-05-14T02:26:21;11.53;;;10.37;;
5135;SDS011;2586;48.710;9.202;2023-05-14T02:28:47;17.87;;;11.10;;
5135;SDS011;2586;48.710;9.202;2023-05-14T02:31:12;12.80;;;11.13;;
5135;SDS011;2586;48.710;9.202;2023-05-14T02:33:38;10.97;;;9.83;;
5135;SDS011;2586;48.710;9.202;2023-05-14T02:36:04;21.93;;;11.63;;
5135;SDS011;2586;48.710;9.202;2023-05-14T02:38:30;11.63;;;10.43;;
5135;SDS011;2586;48.710;9.202;2023-05-14T02:40:55;11.07;;;9.97;;
5135;SDS011;2586;48.710;9.202;2023-05-14T02:43:21;12.53;;;9.60;;
5135;SDS011;2586;48.710;9.202;2023-05-14T02:45:47;11.37;;;10.17;;
5135;SDS011;2586;48.710;9.202;2023-05-14T02:48:12;11.43;;;10.20;;
5135;SDS011;2586;48.710;9.202;2023-05-14T02:50:38;13.40;;;10.37;;
5135;SDS011;2586;48.710;9.202;2023-05-14T02:53:03;12.63;;;11.37;;
5135;SDS011;2586;48.710;9.202;2023-05-14T02:55:29;13.37;;;10.80;;
5135;SDS011;2586;48.710;9.202;2023-05-14T02:57:55;11.67;;;10.37;;
5135;SDS011;2586;48.710;9.202;2023-05-14T03:00:20;11.97;;;9.47;;
5135;SDS011;2586;48.710;9.202;2023-05-14T03:02:46;10.93;;;9.93;;
5135;SDS011;2586;48.710;9.202;2023-05-14T03:05:12;12.73;;;11.30;;
5135;SDS011;2586;48.710;9.202;2023-05-14T03:07:37;10.60;;;9.50;;
5135;SDS011;2586;48.710;9.202;2023-05-14T03:10:03;15.00;;;9.93;;
5135;SDS011;2586;48.710;9.202;2023-05-14T03:12:29;13.53;;;11.10;;
5135;SDS011;2586;48.710;9.202;2023-05-14T03:14:55;14.23;;;8.93;;
5135;SDS011;2586;48.710;9.202;2023-05-14T03:17:20;10.90;;;9.73;;
5135;SDS011;2586;48.710;9.202;2023-05-14T03:19:46;11.07;;;9.97;;
5135;SDS011;2586;48.710;9.202;2023-05-14T03:22:12;12.30;;;11.03;;
5135;SDS011;2586;48.710;9.202;2023-05-14T03:24:38;10.30;;;9.20;;
5135;SDS011;2586;48.710;9.202;2023-05-14T03:27:04;24.30;;;10.87;;
5135;SDS011;2586;48.710;9.202;2023-05-14T03:29:30;10.13;;;9.13;;
5135;SDS011;2586;48.710;9.202;2023-05-14T03:31:55;11.60;;;10.00;;
5135;SDS011;2586;48.710;9.202;2023-05-14T03:34:21;11.77;;;10.57;;
5135;SDS011;2586;48.710;9.202;2023-05-14T03:36:47;9.93;;;8.90;;
5135;SDS011;2586;48.710;9.202;2023-05-14T03:39:12;10.10;;;9.10;;
5135;SDS011;2586;48.710;9.202;2023-05-14T03:41:43;10.60;;;9.10;;
5135;SDS011;2586;48.710;9.202;2023-05-14T03:44:12;11.13;;;9.90;;
5135;SDS011;2586;48.710;9.202;2023-05-14T03:46:38;10.50;;;9.40;;
5135;SDS011;2586;48.710;9.202;2023-05-14T03:49:03;10.27;;;9.27;;
5135;SDS011;2586;48.710;9.202;2023-05-14T03:51:29;21.10;;;9.10;;
5135;SDS011;2586;48.710;9.202;2023-05-14T03:53:55;9.70;;;8.80;;
5135;SDS011;2586;48.710;9.202;2023-05-14T03:56:22;10.07;;;8.90;;
5135;SDS011;2586;48.710;9.202;2023-05-14T03:58:48;9.57;;;8.57;;
5135;SDS011;2586;48.710;9.202;2023-05-14T04:01:13;10.60;;;9.40;;
5135;SDS011;2586;48.710;9.202;2023-05-14T04:03:39;20.23;;;9.63;;
5135;SDS011;2586;48.710;9.202;2023-05-14T04:06:04;10.03;;;9.03;;
5135;SDS011;2586;48.710;9.202;2023-05-14T04:08:30;10.00;;;9.00;;
5135;SDS011;2586;48.710;9.202;2023-05-14T04:10:56;12.10;;;9.93;;
5135;SDS011;2586;48.710;9.202;2023-05-14T04:13:21;10.30;;;9.03;;
5135;SDS011;2586;48.710;9.202;2023-05-14T04:15:47;13.03;;;9.30;;
5135;SDS011;2586;48.710;9.202;2023-05-14T04:18:12;9.60;;;8.60;;
5135;SDS011;2586;48.710;9.202;2023-05-14T04:20:38;8.90;;;8.10;;
5135;SDS011;2586;48.710;9.202;2023-05-14T04:23:04;10.73;;;8.07;;
5135;SDS011;2586;48.710;9.202;2023-05-14T04:25:30;12.97;;;8.77;;
5135;SDS011;2586;48.710;9.202;2023-05-14T04:27:56;14.77;;;8.90;;
5135;SDS011;2586;48.710;9.202;2023-05-14T04:30:22;11.10;;;8.90;;
5135;SDS011;2586;48.710;9.202;2023-05-14T04:32:48;10.93;;;9.23;;
5135;SDS011;2586;48.710;9.202;2023-05-14T04:35:13;15.67;;;7.93;;
5135;SDS011;2586;48.710;9.202;2023-05-14T04:37:39;12.43;;;8.60;;
5135;SDS011;2586;48.710;9.202;2023-05-14T04:40:05;9.90;;;8.93;;
5135;SDS011;2586;48.710;9.202;2023-05-14T04:42:32;9.27;;;8.23;;
5135;SDS011;2586;48.710;9.202;2023-05-14T04:44:57;9.37;;;8.37;;
5135;SDS011;2586;48.710;9.202;2023-05-14T04:47:23;12.73;;;8.77;;
5135;SDS011;2586;48.710;9.202;2023-05-14T04:49:48;10.70;;;9.63;;
5135;SDS011;2586;48.710;9.202;2023-05-14T04:52:14;8.87;;;8.07;;
5135;SDS011;2586;48.710;9.202;2023-05-14T04:54:40;15.77;;;9.70;;
5135;SDS011;2586;48.710;9.202;2023-05-14T04:57:05;10.67;;;8.30;;
5135;SDS011;2586;48.710;9.202;2023-05-14T04:59:31;9.73;;;8.67;;
5135;SDS011;2586;48.710;9.202;2023-05-14T05:01:56;10.20;;;8.30;;
5135;SDS011;2586;48.710;9.202;2023-05-14T05:04:22;10.03;;;8.10;;
5135;SDS011;2586;48.710;9.202;2023-05-14T05:06:48;10.60;;;8.97;;
5135;SDS011;2586;48.710;9.202;2023-05-14T05:09:16;9.50;;;8.60;;
5135;SDS011;2586;48.710;9.202;2023-05-14T05:11:42;10.07;;;7.60;;
5135;SDS011;2586;48.710;9.202;2023-05-14T05:14:07;9.83;;;7.67;;
5135;SDS011;2586;48.710;9.202;2023-05-14T05:16:33;18.90;;;8.27;;
5135;SDS011;2586;48.710;9.202;2023-05-14T05:18:58;9.60;;;7.60;;
5135;SDS011;2586;48.710;9.202;2023-05-14T05:21:24;8.30;;;7.00;;
5135;SDS011;2586;48.710;9.202;2023-05-14T05:23:50;9.33;;;8.03;;
5135;SDS011;2586;48.710;9.202;2023-05-14T05:26:15;13.10;;;8.87;;
5135;SDS011;2586;48.710;9.202;2023-05-14T05:28:41;9.53;;;8.33;;
5135;SDS011;2586;48.710;9.202;2023-05-14T05:31:06;8.30;;;7.57;;
5135;SDS011;2586;48.710;9.202;2023-05-14T05:33:33;13.13;;;8.40;;
5135;SDS011;2586;48.710;9.202;2023-05-14T05:35:59;9.83;;;8.03;;
5135;SDS011;2586;48.710;9.202;2023-05-14T05:38:24;15.37;;;8.70;;
5135;SDS011;2586;48.710;9.202;2023-05-14T05:40:50;9.00;;;8.10;;
5135;SDS011;2586;48.710;9.202;2023-05-14T05:43:16;7.07;;;6.47;;
5135;SDS011;2586;48.710;9.202;2023-05-14T05:45:42;9.83;;;7.63;;
5135;SDS011;2586;48.710;9.202;2023-05-14T05:48:07;10.03;;;7.83;;
5135;SDS011;2586;48.710;9.202;2023-05-14T05:50:33;9.53;;;7.30;;
5135;SDS011;2586;48.710;9.202;2023-05-14T05:52:58;9.33;;;8.33;;
5135;SDS011;2586;48.710;9.202;2023-05-14T05:55:24;10.90;;;8.17;;
5135;SDS011;2586;48.710;9.202;2023-05-14T05:57:50;8.33;;;7.37;;
5135;SDS011;2586;48.710;9.202;2023-05-14T06:00:15;8.47;;;7.60;;
5135;SDS011;2586;48.710;9.202;2023-05-14T06:02:41;14.07;;;9.30;;
5135;SDS011;2586;48.710;9.202;2023-05-14T06:05:08;8.80;;;7.90;;
5135;SDS011;2586;48.710;9.202;2023-05-14T06:07:34;11.33;;;9.10;;
5135;SDS011;2586;48.710;9.202;2023-05-14T06:10:00;12.43;;;8.13;;
5135;SDS011;2586;48.710;9.202;2023-05-14T06:12:25;11.90;;;9.23;;
5135;SDS011;2586;48.710;9.202;2023-05-14T06:14:52;8.67;;;7.80;;
5135;SDS011;2586;48.710;9.202;2023-05-14T06:17:22;9.63;;;8.53;;
5135;SDS011;2586;48.710;9.202;2023-05-14T06:19:48;9.30;;;8.40;;
5135;SDS011;2586;48.710;9.202;2023-05-14T06:22:15;7.70;;;7.03;;
5135;SDS011;2586;48.710;9.202;2023-05-14T06:24:40;8.87;;;7.97;;
5135;SDS011;2586;48.710;9.202;2023-05-14T06:27:06;10.17;;;8.10;;
5135;SDS011;2586;48.710;9.202;2023-05-14T06:29:31;9.90;;;8.63;;
5135;SDS011;2586;48.710;9.202;2023-05-14T06:32:00;10.73;;;7.87;;
5135;SDS011;2586;48.710;9.202;2023-05-14T06:34:27;10.90;;;8.13;;
5135;SDS011;2586;48.710;9.202;2023-05-14T06:36:53;9.03;;;8.07;;
5135;SDS011;2586;48.710;9.202;2023-05-14T06:39:18;10.50;;;7.80;;
5135;SDS011;2586;48.710;9.202;2023-05-14T06:41:44;10.83;;;9.00;;
5135;SDS011;2586;48.710;9.202;2023-05-14T06:44:09;10.87;;;7.83;;
5135;SDS011;2586;48.710;9.202;2023-05-14T06:46:35;10.07;;;8.37;;
5135;SDS011;2586;48.710;9.202;2023-05-14T06:49:01;11.03;;;8.50;;
5135;SDS011;2586;48.710;9.202;2023-05-14T06:51:27;17.10;;;8.30;;
5135;SDS011;2586;48.710;9.202;2023-05-14T06:53:53;8.77;;;7.90;;
5135;SDS011;2586;48.710;9.202;2023-05-14T06:56:19;8.77;;;7.90;;
5135;SDS011;2586;48.710;9.202;2023-05-14T06:58:46;8.67;;;7.87;;
5135;SDS011;2586;48.710;9.202;2023-05-14T07:01:11;10.13;;;8.80;;
5135;SDS011;2586;48.710;9.202;2023-05-14T07:03:37;9.70;;;8.70;;
5135;SDS011;2586;48.710;9.202;2023-05-14T07:06:03;15.20;;;9.03;;
5135;SDS011;2586;48.710;9.202;2023-05-14T07:08:28;12.20;;;8.67;;
5135;SDS011;2586;48.710;9.202;2023-05-14T07:10:54;8.80;;;7.90;;
5135;SDS011;2586;48.710;9.202;2023-05-14T07:13:21;11.93;;;8.97;;
5135;SDS011;2586;48.710;9.202;2023-05-14T07:15:47;10.10;;;7.97;;
5135;SDS011;2586;48.710;9.202;2023-05-14T07:18:13;10.70;;;9.00;;
5135;SDS011;2586;48.710;9.202;2023-05-14T07:20:39;9.10;;;8.20;;
5135;SDS011;2586;48.710;9.202;2023-05-14T07:23:04;9.53;;;8.60;;
5135;SDS011;2586;48.710;9.202;2023-05-14T07:25:33;9.43;;;8.07;;
5135;SDS011;2586;48.710;9.202;2023-05-14T07:27:59;8.87;;;8.03;;
5135;SDS011;2586;48.710;9.202;2023-05-14T07:30:24;8.20;;;7.37;;
5135;SDS011;2586;48.710;9.202;2023-05-14T07:32:50;9.10;;;8.07;;
5135;SDS011;2586;48.710;9.202;2023-05-14T07:35:15;11.37;;;9.10;;
5135;SDS011;2586;48.710;9.202;2023-05-14T07:37:41;8.67;;;7.70;;
5135;SDS011;2586;48.710;9.202;2023-05-14T07:40:07;10.00;;;8.33;;
5135;SDS011;2586;48.710;9.202;2023-05-14T07:42:33;12.27;;;8.67;;
5135;SDS011;2586;48.710;9.202;2023-05-14T07:44:59;11.20;;;8.07;;
5135;SDS011;2586;48.710;9.202;2023-05-14T07:47:24;12.10;;;8.93;;
5135;SDS011;2586;48.710;9.202;2023-05-14T07:49:54;9.23;;;8.03;;
5135;SDS011;2586;48.710;9.202;2023-05-14T07:52:20;9.23;;;7.47;;
5135;SDS011;2586;48.710;9.202;2023-05-14T07:54:46;10.10;;;9.03;;
5135;SDS011;2586;48.710;9.202;2023-05-14T07:57:12;9.43;;;8.47;;
5135;SDS011;2586;48.710;9.202;2023-05-14T07:59:37;9.70;;;8.00;;
5135;SDS011;2586;48.710;9.202;2023-05-14T08:02:03;10.97;;;8.10;;
5135;SDS011;2586;48.710;9.202;2023-05-14T08:04:29;8.37;;;7.57;;
5135;SDS011;2586;48.710;9.202;2023-05-14T08:06:54;13.43;;;8.30;;
5135;SDS011;2586;48.710;9.202;2023-05-14T08:09:22;13.83;;;8.33;;
5135;SDS011;2586;48.710;9.202;2023-05-14T08:11:47;9.63;;;8.63;;
5135;SDS011;2586;48.710;9.202;2023-05-14T08:14:13;11.70;;;9.13;;
5135;SDS011;2586;48.710;9.202;2023-05-14T08:16:39;9.17;;;7.77;;
5135;SDS011;2586;48.710;9.202;2023-05-14T08:19:05;12.13;;;8.80;;
5135;SDS011;2586;48.710;9.202;2023-05-14T08:21:31;8.57;;;7.70;;
5135;SDS011;2586;48.710;9.202;2023-05-14T08:23:56;8.53;;;7.70;;
5135;SDS011;2586;48.710;9.202;2023-05-14T08:26:22;11.60;;;7.50;;
5135;SDS011;2586;48.710;9.202;2023-05-14T08:28:48;9.73;;;7.20;;
5135;SDS011;2586;48.710;9.202;2023-05-14T08:31:13;14.03;;;6.90;;
5135;SDS011;2586;48.710;9.202;2023-05-14T08:33:39;6.20;;;5.70;;
5135;SDS011;2586;48.710;9.202;2023-05-14T08:36:05;7.93;;;7.10;;
5135;SDS011;2586;48.710;9.202;2023-05-14T08:38:31;9.63;;;7.37;;
5135;SDS011;2586;48.710;9.202;2023-05-14T08:40:57;7.50;;;6.73;;
5135;SDS011;2586;48.710;9.202;2023-05-14T08:43:33;9.50;;;8.47;;
5135;SDS011;2586;48.710;9.202;2023-05-14T08:46:09;9.83;;;7.87;;
5135;SDS011;2586;48.710;9.202;2023-05-14T08:48:39;11.00;;;8.37;;
5135;SDS011;2586;48.710;9.202;2023-05-14T08:51:07;8.00;;;7.30;;
5135;SDS011;2586;48.710;9.202;2023-05-14T08:53:33;10.43;;;7.43;;
5135;SDS011;2586;48.710;9.202;2023-05-14T08:56:02;13.70;;;7.90;;
5135;SDS011;2586;48.710;9.202;2023-05-14T08:58:29;11.50;;;7.63;;
5135;SDS011;2586;48.710;9.202;2023-05-14T09:00:54;7.70;;;7.00;;
5135;SDS011;2586;48.710;9.202;2023-05-14T09:03:20;8.37;;;7.33;;
5135;SDS011;2586;48.710;9.202;2023-05-14T09:05:47;8.63;;;6.63;;
5135;SDS011;2586;48.710;9.202;2023-05-14T09:08:15;8.57;;;7.10;;
5135;SDS011;2586;48.710;9.202;2023-05-14T09:10:41;10.30;;;7.37;;
5135;SDS011;2586;48.710;9.202;2023-05-14T09:13:06;10.23;;;7.50;;
5135;SDS011;2586;48.710;9.202;2023-05-14T09:15:34;7.50;;;6.37;;
5135;SDS011;2586;48.710;9.202;2023-05-14T09:18:03;9.37;;;8.03;;
5135;SDS011;2586;48.710;9.202;2023-05-14T09:20:29;11.17;;;9.13;;
5135;SDS011;2586;48.710;9.202;2023-05-14T09:22:56;9.50;;;8.60;;
5135;SDS011;2586;48.710;9.202;2023-05-14T09:25:26;8.53;;;7.33;;
5135;SDS011;2586;48.710;9.202;2023-05-14T09:27:57;13.50;;;7.97;;
5135;SDS011;2586;48.710;9.202;2023-05-14T09:30:23;12.90;;;8.07;;
5135;SDS011;2586;48.710;9.202;2023-05-14T09:32:52;8.77;;;7.50;;
5135;SDS011;2586;48.710;9.202;2023-05-14T09:35:20;12.70;;;9.00;;
5135;SDS011;2586;48.710;9.202;2023-05-14T09:37:49;13.10;;;8.03;;
5135;SDS011;2586;48.710;9.202;2023-05-14T09:40:17;7.50;;;6.77;;
5135;SDS011;2586;48.710;9.202;2023-05-14T09:42:43;8.10;;;7.30;;
5135;SDS011;2586;48.710;9.202;2023-05-14T09:45:09;9.97;;;6.23;;
5135;SDS011;2586;48.710;9.202;2023-05-14T09:47:36;8.17;;;6.80;;
5135;SDS011;2586;48.710;9.202;2023-05-14T09:50:02;9.23;;;8.37;;
5135;SDS011;2586;48.710;9.202;2023-05-14T09:52:29;8.37;;;7.53;;
5135;SDS011;2586;48.710;9.202;2023-05-14T09:54:55;10.43;;;7.87;;
5135;SDS011;2586;48.710;9.202;2023-05-14T09:57:20;8.70;;;6.70;;
5135;SDS011;2586;48.710;9.202;2023-05-14T09:59:46;7.40;;;6.70;;
5135;SDS011;2586;48.710;9.202;2023-05-14T10:02:20;8.60;;;5.90;;
5135;SDS011;2586;48.710;9.202;2023-05-14T10:04:51;6.93;;;6.23;;
5135;SDS011;2586;48.710;9.202;2023-05-14T10:07:20;6.80;;;6.17;;
5135;SDS011;2586;48.710;9.202;2023-05-14T10:09:47;6.47;;;5.80;;
5135;SDS011;2586;48.710;9.202;2023-05-14T10:12:13;7.07;;;6.37;;
5135;SDS011;2586;48.710;9.202;2023-05-14T10:14:46;8.10;;;6.90;;
5135;SDS011;2586;48.710;9.202;2023-05-14T10:17:18;9.00;;;7.40;;
5135;SDS011;2586;48.710;9.202;2023-05-14T10:19:46;8.80;;;6.97;;
5135;SDS011;2586;48.710;9.202;2023-05-14T10:22:21;7.73;;;6.80;;
5135;SDS011;2586;48.710;9.202;2023-05-14T10:24:47;8.03;;;7.30;;
5135;SDS011;2586;48.710;9.202;2023-05-14T10:27:16;9.17;;;6.67;;
5135;SDS011;2586;48.710;9.202;2023-05-14T10:29:50;9.13;;;7.30;;
5135;SDS011;2586;48.710;9.202;2023-05-14T10:32:20;7.43;;;6.77;;
5135;SDS011;2586;48.710;9.202;2023-05-14T10:34:49;15.60;;;7.33;;
5135;SDS011;2586;48.710;9.202;2023-05-14T10:37:19;9.93;;;6.47;;
5135;SDS011;2586;48.710;9.202;2023-05-14T10:39:52;14.00;;;6.23;;
5135;SDS011;2586;48.710;9.202;2023-05-14T10:42:25;8.30;;;6.87;;
5135;SDS011;2586;48.710;9.202;2023-05-14T10:44:58;7.40;;;6.70;;
5135;SDS011;2586;48.710;9.202;2023-05-14T10:47:26;8.20;;;6.70;;
5135;SDS011;2586;48.710;9.202;2023-05-14T10:49:53;6.63;;;6.13;;
5135;SDS011;2586;48.710;9.202;2023-05-14T10:52:20;6.90;;;6.30;;
5135;SDS011;2586;48.710;9.202;2023-05-14T10:54:52;8.37;;;7.57;;
5135;SDS011;2586;48.710;9.202;2023-05-14T10:57:23;7.13;;;6.40;;
5135;SDS011;2586;48.710;9.202;2023-05-14T10:59:55;6.90;;;6.30;;
5135;SDS011;2586;48.710;9.202;2023-05-14T11:02:23;16.43;;;5.47;;
5135;SDS011;2586;48.710;9.202;2023-05-14T11:05:06;7.00;;;5.70;;
5135;SDS011;2586;48.710;9.202;2023-05-14T11:07:37;8.70;;;4.53;;
5135;SDS011;2586;48.710;9.202;2023-05-14T11:12:34;7.53;;;3.70;;
5135;SDS011;2586;48.710;9.202;2023-05-14T11:15:03;4.17;;;3.77;;
5135;SDS011;2586;48.710;9.202;2023-05-14T11:17:33;5.03;;;4.53;;
5135;SDS011;2586;48.710;9.202;2023-05-14T11:20:00;5.40;;;3.60;;
5135;SDS011;2586;48.710;9.202;2023-05-14T11:22:26;4.20;;;3.80;;
5135;SDS011;2586;48.710;9.202;2023-05-14T11:24:51;4.73;;;4.40;;
5135;SDS011;2586;48.710;9.202;2023-05-14T11:27:17;4.30;;;4.00;;
5135;SDS011;2586;48.710;9.202;2023-05-14T11:29:44;4.43;;;4.13;;
5135;SDS011;2586;48.710;9.202;2023-05-14T11:32:11;4.70;;;4.30;;
5135;SDS011;2586;48.710;9.202;2023-05-14T11:34:38;4.93;;;4.43;;
5135;SDS011;2586;48.710;9.202;2023-05-14T11:37:05;4.63;;;4.10;;
5135;SDS011;2586;48.710;9.202;2023-05-14T11:39:31;6.27;;;4.07;;
5135;SDS011;2586;48.710;9.202;2023-05-14T11:41:58;5.50;;;5.00;;
5135;SDS011;2586;48.710;9.202;2023-05-14T11:44:26;4.67;;;3.97;;
5135;SDS011;2586;48.710;9.202;2023-05-14T11:46:55;4.23;;;3.83;;
5135;SDS011;2586;48.710;9.202;2023-05-14T11:49:22;5.63;;;4.10;;
5135;SDS011;2586;48.710;9.202;2023-05-14T11:51:48;5.87;;;5.37;;
5135;SDS011;2586;48.710;9.202;2023-05-14T11:54:14;5.40;;;4.20;;
5135;SDS011;2586;48.710;9.202;2023-05-14T11:56:40;5.40;;;4.70;;
5135;SDS011;2586;48.710;9.202;2023-05-14T11:59:05;5.10;;;4.60;;
5135;SDS011;2586;48.710;9.202;2023-05-14T12:01:35;5.10;;;4.57;;
5135;SDS011;2586;48.710;9.202;2023-05-14T12:04:02;5.20;;;4.20;;
5135;SDS011;2586;48.710;9.202;2023-05-14T12:06:31;6.40;;;5.13;;
5135;SDS011;2586;48.710;9.202;2023-05-14T12:08:57;6.97;;;6.27;;
5135;SDS011;2586;48.710;9.202;2023-05-14T12:11:24;5.33;;;4.87;;
5135;SDS011;2586;48.710;9.202;2023-05-14T12:13:54;9.00;;;5.27;;
5135;SDS011;2586;48.710;9.202;2023-05-14T12:16:19;5.73;;;5.03;;
5135;SDS011;2586;48.710;9.202;2023-05-14T12:18:45;5.27;;;4.77;;
5135;SDS011;2586;48.710;9.202;2023-05-14T12:21:11;6.00;;;5.40;;
5135;SDS011;2586;48.710;9.202;2023-05-14T12:23:37;9.00;;;5.47;;
5135;SDS011;2586;48.710;9.202;2023-05-14T12:26:04;5.80;;;5.30;;
5135;SDS011;2586;48.710;9.202;2023-05-14T12:28:30;6.93;;;4.53;;
5135;SDS011;2586;48.710;9.202;2023-05-14T12:30:57;6.60;;;5.00;;
5135;SDS011;2586;48.710;9.202;2023-05-14T12:33:23;4.73;;;4.33;;
5135;SDS011;2586;48.710;9.202;2023-05-14T12:35:51;5.43;;;4.70;;
5135;SDS011;2586;48.710;9.202;2023-05-14T12:38:26;5.97;;;5.00;;
5135;SDS011;2586;48.710;9.202;2023-05-14T12:40:52;4.03;;;3.73;;
5135;SDS011;2586;48.710;9.202;2023-05-14T12:43:18;5.33;;;3.90;;
5135;SDS011;2586;48.710;9.202;2023-05-14T12:45:44;4.20;;;3.90;;
5135;SDS011;2586;48.710;9.202;2023-05-14T12:48:10;7.27;;;4.77;;
5135;SDS011;2586;48.710;9.202;2023-05-14T12:50:37;4.17;;;3.87;;
5135;SDS011;2586;48.710;9.202;2023-05-14T12:53:02;4.90;;;4.40;;
5135;SDS011;2586;48.710;9.202;2023-05-14T12:55:28;5.60;;;4.07;;
5135;SDS011;2586;48.710;9.202;2023-05-14T12:57:54;4.37;;;4.00;;
5135;SDS011;2586;48.710;9.202;2023-05-14T13:00:19;5.13;;;3.77;;
5135;SDS011;2586;48.710;9.202;2023-05-14T13:02:45;4.30;;;3.90;;
5135;SDS011;2586;48.710;9.202;2023-05-14T13:05:10;4.30;;;3.90;;
5135;SDS011;2586;48.710;9.202;2023-05-14T13:07:36;3.63;;;3.40;;
5135;SDS011;2586;48.710;9.202;2023-05-14T13:10:02;4.90;;;3.60;;
5135;SDS011;2586;48.710;9.202;2023-05-14T13:12:29;4.93;;;3.80;;
5135;SDS011;2586;48.710;9.202;2023-05-14T13:14:55;3.50;;;3.30;;
5135;SDS011;2586;48.710;9.202;2023-05-14T13:17:20;9.20;;;3.10;;
5135;SDS011;2586;48.710;9.202;2023-05-14T13:19:46;4.50;;;3.30;;
5135;SDS011;2586;48.710;9.202;2023-05-14T13:22:11;2.60;;;2.50;;
5135;SDS011;2586;48.710;9.202;2023-05-14T13:24:38;7.73;;;3.50;;
5135;SDS011;2586;48.710;9.202;2023-05-14T13:27:04;4.43;;;3.60;;
5135;SDS011;2586;48.710;9.202;2023-05-14T13:29:29;3.47;;;3.27;;
5135;SDS011;2586;48.710;9.202;2023-05-14T13:31:55;11.23;;;3.70;;
5135;SDS011;2586;48.710;9.202;2023-05-14T13:34:21;4.97;;;3.50;;
5135;SDS011;2586;48.710;9.202;2023-05-14T13:36:46;3.10;;;2.80;;
5135;SDS011;2586;48.710;9.202;2023-05-14T13:39:13;6.30;;;2.63;;
5135;SDS011;2586;48.710;9.202;2023-05-14T13:41:39;2.80;;;2.60;;
5135;SDS011;2586;48.710;9.202;2023-05-14T13:44:05;8.17;;;3.13;;
5135;SDS011;2586;48.710;9.202;2023-05-14T13:46:31;3.00;;;2.70;;
5135;SDS011;2586;48.710;9.202;2023-05-14T13:48:56;3.73;;;3.30;;
5135;SDS011;2586;48.710;9.202;2023-05-14T13:51:22;4.40;;;4.00;;
5135;SDS011;2586;48.710;9.202;2023-05-14T13:53:48;3.87;;;3.57;;
5135;SDS011;2586;48.710;9.202;2023-05-14T13:56:13;3.30;;;3.10;;
5135;SDS011;2586;48.710;9.202;2023-05-14T13:58:39;2.83;;;2.63;;
5135;SDS011;2586;48.710;9.202;2023-05-14T14:01:04;3.50;;;3.20;;
5135;SDS011;2586;48.710;9.202;2023-05-14T14:03:30;3.20;;;3.00;;
5135;SDS011;2586;48.710;9.202;2023-05-14T14:05:56;3.30;;;3.10;;
5135;SDS011;2586;48.710;9.202;2023-05-14T14:08:21;3.07;;;2.87;;
5135;SDS011;2586;48.710;9.202;2023-05-14T14:10:47;3.80;;;2.57;;
5135;SDS011;2586;48.710;9.202;2023-05-14T14:13:12;3.47;;;3.23;;
5135;SDS011;2586;48.710;9.202;2023-05-14T14:15:38;6.03;;;3.10;;
5135;SDS011;2586;48.710;9.202;2023-05-14T14:18:04;3.87;;;3.57;;
5135;SDS011;2586;48.710;9.202;2023-05-14T14:20:29;4.43;;;2.80;;
5135;SDS011;2586;48.710;9.202;2023-05-14T14:22:56;3.30;;;3.10;;
5135;SDS011;2586;48.710;9.202;2023-05-14T14:25:22;6.67;;;3.47;;
5135;SDS011;2586;48.710;9.202;2023-05-14T14:27:47;3.20;;;3.00;;
5135;SDS011;2586;48.710;9.202;2023-05-14T14:30:13;3.93;;;3.57;;
5135;SDS011;2586;48.710;9.202;2023-05-14T14:32:42;3.53;;;3.23;;
5135;SDS011;2586;48.710;9.202;2023-05-14T14:35:08;8.30;;;3.10;;
5135;SDS011;2586;48.710;9.202;2023-05-14T14:37:35;4.67;;;2.70;;
5135;SDS011;2586;48.710;9.202;2023-05-14T14:40:01;4.50;;;3.30;;
5135;SDS011;2586;48.710;9.202;2023-05-14T14:42:26;2.90;;;2.70;;
5135;SDS011;2586;48.710;9.202;2023-05-14T14:44:52;2.97;;;2.70;;
5135;SDS011;2586;48.710;9.202;2023-05-14T14:47:17;3.23;;;2.90;;
5135;SDS011;2586;48.710;9.202;2023-05-14T14:49:43;4.10;;;2.90;;
5135;SDS011;2586;48.710;9.202;2023-05-14T14:52:08;2.10;;;2.00;;
5135;SDS011;2586;48.710;9.202;2023-05-14T14:54:34;2.97;;;2.77;;
5135;SDS011;2586;48.710;9.202;2023-05-14T14:56:59;4.30;;;2.80;;
5135;SDS011;2586;48.710;9.202;2023-05-14T14:59:25;2.90;;;2.70;;
5135;SDS011;2586;48.710;9.202;2023-05-14T15:01:51;2.53;;;2.43;;
5135;SDS011;2586;48.710;9.202;2023-05-14T15:04:16;2.37;;;2.27;;
5135;SDS011;2586;48.710;9.202;2023-05-14T15:06:42;2.30;;;2.10;;
5135;SDS011;2586;48.710;9.202;2023-05-14T15:09:07;2.50;;;2.40;;
5135;SDS011;2586;48.710;9.202;2023-05-14T15:11:33;5.63;;;2.60;;
5135;SDS011;2586;48.710;9.202;2023-05-14T15:13:59;2.10;;;2.00;;